createdAt,value
2022-10-17T00:03:54.305Z,100410.69
2022-10-17T00:08:55.970Z,100420.09
2022-10-17T00:13:57.621Z,100419.47
2022-10-17T00:18:59.915Z,100414.56
2022-10-17T00:24:01.899Z,100403.25
2022-10-17T00:29:03.732Z,100414.38
2022-10-17T00:34:05.488Z,100418.94
2022-10-17T00:39:07.148Z,100416.69
2022-10-17T00:44:30.568Z,100409.13
2022-10-17T00:49:36.514Z,100421.06
2022-10-17T00:54:43.635Z,100424.78
2022-10-17T00:59:50.121Z,100417.69
2022-10-17T01:04:55.671Z,100425.78
2022-10-17T01:09:57.383Z,100435.88
2022-10-17T01:15:09.895Z,100431.34
2022-10-17T01:20:15.609Z,100430.00
2022-10-17T01:25:36.147Z,100431.13
2022-10-17T01:30:53.016Z,100423.97
2022-10-17T01:36:04.747Z,100423.47
2022-10-17T01:41:16.261Z,100424.56
2022-10-17T01:46:28.232Z,100426.66
2022-10-17T01:51:45.001Z,100426.84
2022-10-17T01:56:51.250Z,100430.31
2022-10-17T02:01:55.958Z,100415.16
2022-10-17T02:06:57.809Z,100410.03
2022-10-17T02:12:36.588Z,100402.81
2022-10-17T02:18:01.709Z,100401.38
2022-10-17T02:23:26.404Z,100404.69
2022-10-17T02:28:28.084Z,100398.56
2022-10-17T02:33:35.537Z,100397.97
2022-10-17T02:38:40.170Z,100402.47
2022-10-17T02:43:45.357Z,100405.81
2022-10-17T02:49:28.279Z,100412.75
2022-10-17T02:54:52.174Z,100416.59
2022-10-17T02:59:57.502Z,100412.00
2022-10-17T03:04:59.310Z,100418.44
2022-10-17T03:10:01.142Z,100416.13
2022-10-17T03:15:04.944Z,100411.38
2022-10-17T03:20:07.494Z,100406.25
2022-10-17T03:25:09.303Z,100410.28
2022-10-17T03:30:11.808Z,100418.72
2022-10-17T03:35:15.049Z,100416.66
2022-10-17T03:40:20.387Z,100424.66
2022-10-17T03:45:22.707Z,100424.34
2022-10-17T03:50:24.874Z,100426.78
2022-10-17T03:55:27.080Z,100432.84
2022-10-17T04:00:28.914Z,100432.09
2022-10-17T04:05:33.008Z,100436.41
2022-10-17T04:10:34.836Z,100438.47
2022-10-17T04:15:37.021Z,100453.50
2022-10-17T04:20:39.773Z,100459.56
2022-10-17T04:25:42.147Z,100461.69
2022-10-17T04:30:45.560Z,100468.75
2022-10-17T04:36:02.282Z,100471.44
2022-10-17T04:41:08.808Z,100466.19
2022-10-17T04:46:13.004Z,100470.41
2022-10-17T04:51:20.606Z,100473.34
2022-10-17T04:56:43.674Z,100478.66
2022-10-17T05:01:45.517Z,100481.13
2022-10-17T05:06:48.248Z,100483.88
2022-10-17T05:12:10.312Z,100484.44
2022-10-17T05:17:16.051Z,100482.19
2022-10-17T05:22:17.863Z,100495.19
2022-10-17T05:27:19.793Z,100493.69
2022-10-17T05:32:21.622Z,100495.81
2022-10-17T05:37:23.444Z,100507.34
2022-10-17T05:42:28.201Z,100516.97
2022-10-17T05:47:32.005Z,100521.63
2022-10-17T05:52:34.274Z,100518.63
2022-10-17T05:57:44.681Z,100532.38
2022-10-17T06:02:50.992Z,100528.56
2022-10-17T06:07:57.041Z,100533.28
2022-10-17T06:13:02.092Z,100524.56
2022-10-17T06:18:04.062Z,100532.81
2022-10-17T06:23:06.448Z,100536.16
2022-10-17T06:28:31.539Z,100537.94
2022-10-17T06:33:33.393Z,100551.00
2022-10-17T06:38:35.700Z,100559.59
2022-10-17T06:43:48.612Z,100560.13
2022-10-17T06:49:10.376Z,100561.41
2022-10-17T06:54:18.486Z,100566.22
2022-10-17T06:59:36.645Z,100563.97
2022-10-17T07:04:46.326Z,100574.69
2022-10-17T07:09:48.070Z,100575.66
2022-10-17T07:14:51.880Z,100574.03
2022-10-17T07:19:54.195Z,100583.78
2022-10-17T07:24:56.049Z,100583.22
2022-10-17T07:30:16.880Z,100584.59
2022-10-17T07:35:42.301Z,100572.94
2022-10-17T07:40:45.286Z,100578.78
2022-10-17T07:45:46.932Z,100579.88
2022-10-17T07:50:49.113Z,100582.38
2022-10-17T07:55:51.467Z,100588.13
2022-10-17T08:00:53.287Z,100587.41
2022-10-17T08:05:58.282Z,100583.28
2022-10-17T08:11:05.788Z,100581.25
2022-10-17T08:16:10.227Z,100572.59
2022-10-17T08:21:13.530Z,100568.00
2022-10-17T08:26:17.370Z,100569.19
2022-10-17T08:31:20.198Z,100571.94
2022-10-17T08:36:22.015Z,100566.72
2022-10-17T08:41:53.946Z,100563.84
2022-10-17T08:47:00.128Z,100567.38
2022-10-17T08:52:14.983Z,100558.13
2022-10-17T08:57:17.722Z,100559.72
2022-10-17T09:02:37.862Z,100556.41
2022-10-17T09:07:57.984Z,100557.75
2022-10-17T09:13:18.484Z,100556.31
2022-10-17T09:18:31.830Z,100561.47
2022-10-17T09:23:45.914Z,100553.66
2022-10-17T09:28:54.341Z,100547.09
2022-10-17T09:33:57.906Z,100542.13
2022-10-17T09:39:05.821Z,100548.16
2022-10-17T09:44:21.903Z,100553.44
2022-10-17T09:49:32.618Z,100550.75
2022-10-17T09:54:48.131Z,100542.88
2022-10-17T09:59:59.409Z,100534.78
2022-10-17T10:05:17.332Z,100533.53
2022-10-17T10:10:28.123Z,100527.97
2022-10-17T10:15:37.821Z,100536.69
2022-10-17T10:20:40.697Z,100531.81
2022-10-17T10:26:00.227Z,100537.81
2022-10-17T10:31:09.949Z,100537.91
2022-10-17T10:36:11.754Z,100532.03
2022-10-17T10:41:13.406Z,100528.53
2022-10-17T10:46:27.920Z,100510.53
2022-10-17T10:51:37.512Z,100503.16
2022-10-17T10:56:48.697Z,100506.00
2022-10-17T11:01:52.987Z,100517.44
2022-10-17T11:07:01.258Z,100512.41
2022-10-17T11:12:12.057Z,100513.53
2022-10-17T11:17:23.253Z,100512.72
2022-10-17T11:23:00.092Z,100512.63
2022-10-17T11:28:05.294Z,100504.56
2022-10-17T11:33:12.396Z,100492.13
2022-10-17T11:38:25.406Z,100487.03
2022-10-17T11:43:38.796Z,100481.75
2022-10-17T11:48:49.374Z,100471.72
2022-10-17T11:53:57.500Z,100465.19
2022-10-17T11:59:31.545Z,100451.69
2022-10-17T12:04:39.488Z,100458.66
2022-10-17T12:10:19.476Z,100452.88
2022-10-17T12:15:23.468Z,100432.47
2022-10-17T12:20:28.077Z,100423.72
2022-10-17T12:25:33.789Z,100427.22
2022-10-17T12:30:35.563Z,100410.78
2022-10-17T12:35:38.851Z,100411.94
2022-10-17T12:40:48.433Z,100401.47
2022-10-17T12:45:58.434Z,100398.97
2022-10-17T12:51:34.133Z,100383.47
2022-10-17T12:56:45.726Z,100387.88
2022-10-17T13:01:52.011Z,100385.69
2022-10-17T13:06:58.724Z,100381.88
2022-10-17T13:12:04.650Z,100386.00
2022-10-17T13:17:07.835Z,100386.47
2022-10-17T13:22:19.044Z,100389.72
2022-10-17T13:27:35.012Z,100382.69
2022-10-17T13:32:39.801Z,100381.88
2022-10-17T13:37:43.918Z,100382.88
2022-10-17T13:42:46.351Z,100377.91
2022-10-17T13:47:48.427Z,100390.00
2022-10-17T13:53:06.665Z,100382.66
2022-10-17T13:58:18.329Z,100390.22
2022-10-17T14:03:21.520Z,100396.09
2022-10-17T14:08:23.982Z,100395.69
2022-10-17T14:13:29.056Z,100398.22
2022-10-17T14:18:36.377Z,100401.41
2022-10-17T14:23:41.964Z,100408.47
2022-10-17T14:28:46.804Z,100410.25
2022-10-17T14:33:51.106Z,100409.97
2022-10-17T14:38:53.151Z,100404.75
2022-10-17T14:43:58.168Z,100413.94
2022-10-17T14:49:07.306Z,100414.38
2022-10-17T14:54:26.025Z,100418.09
2022-10-17T14:59:52.884Z,100432.66
2022-10-17T15:04:49.408Z,100440.34
2022-10-17T15:09:52.802Z,100439.88
2022-10-17T15:14:54.499Z,100440.44
2022-10-17T15:19:57.366Z,100451.75
2022-10-17T15:24:59.020Z,100455.56
2022-10-17T15:30:00.784Z,100455.81
2022-10-17T15:35:02.445Z,100462.78
2022-10-17T15:40:04.442Z,100469.91
2022-10-17T15:50:15.233Z,100469.81
2022-10-17T15:55:17.891Z,100479.78
2022-10-17T16:00:24.343Z,100474.94
2022-10-17T16:05:26.299Z,100485.47
2022-10-17T16:10:28.272Z,100478.09
2022-10-17T16:15:29.923Z,100494.25
2022-10-17T16:20:32.097Z,100499.94
2022-10-17T16:25:34.253Z,100507.06
2022-10-17T16:30:42.640Z,100503.50
2022-10-17T16:35:45.688Z,100509.94
2022-10-17T16:40:47.338Z,100506.09
2022-10-17T16:45:48.983Z,100523.38
2022-10-17T16:50:50.634Z,100519.00
2022-10-17T16:56:03.168Z,100519.84
2022-10-17T17:01:07.464Z,100526.34
2022-10-17T17:06:13.789Z,100523.38
2022-10-17T17:11:17.172Z,100534.81
2022-10-17T17:16:23.855Z,100534.66
2022-10-17T17:21:27.022Z,100530.47
2022-10-17T17:26:31.172Z,100532.50
2022-10-17T17:31:34.437Z,100529.50
2022-10-17T17:36:38.509Z,100533.75
2022-10-17T17:41:41.399Z,100537.56
2022-10-17T17:46:43.693Z,100548.00
2022-10-17T17:51:46.618Z,100548.53
2022-10-17T17:56:48.365Z,100562.28
2022-10-17T18:01:50.241Z,100565.31
2022-10-17T18:06:51.935Z,100550.53
2022-10-17T18:11:54.033Z,100539.97
2022-10-17T18:16:55.775Z,100550.72
2022-10-17T18:21:57.475Z,100549.25
2022-10-17T18:26:59.984Z,100557.72
2022-10-17T18:32:01.738Z,100566.19
2022-10-17T18:37:03.885Z,100556.88
2022-10-17T18:42:05.534Z,100556.91
2022-10-17T18:47:07.203Z,100552.28
2022-10-17T18:52:08.973Z,100561.84
2022-10-17T18:57:10.684Z,100551.72
2022-10-17T19:02:15.264Z,100554.09
2022-10-17T19:07:18.936Z,100558.94
2022-10-17T19:12:20.972Z,100552.09
2022-10-17T19:17:22.857Z,100561.00
2022-10-17T19:22:24.564Z,100554.19
2022-10-17T19:27:26.212Z,100563.19
2022-10-17T19:32:29.356Z,100565.34
2022-10-17T19:37:32.684Z,100572.09
2022-10-17T19:42:35.175Z,100568.75
2022-10-17T19:47:36.923Z,100578.88
2022-10-17T19:52:38.574Z,100584.16
2022-10-17T19:57:40.365Z,100585.69
2022-10-17T20:02:42.033Z,100591.78
2022-10-17T20:07:43.672Z,100605.34
2022-10-17T20:12:45.356Z,100602.28
2022-10-17T20:17:47.067Z,100598.25
2022-10-17T20:22:48.715Z,100612.25
2022-10-17T20:27:50.351Z,100622.06
2022-10-17T20:32:55.245Z,100627.28
2022-10-17T20:37:57.299Z,100617.00
2022-10-17T20:42:58.955Z,100617.50
2022-10-17T20:48:00.622Z,100630.84
2022-10-17T20:53:24.805Z,100633.06
2022-10-17T20:58:23.964Z,100639.47
2022-10-17T21:03:26.631Z,100639.47
2022-10-17T21:08:28.445Z,100620.56
2022-10-17T21:13:30.092Z,100623.44
2022-10-17T21:18:31.752Z,100628.66
2022-10-17T21:23:33.390Z,100624.94
2022-10-17T21:28:35.994Z,100623.41
2022-10-17T21:33:37.768Z,100626.75
2022-10-17T21:38:40.467Z,100629.78
2022-10-17T21:43:43.220Z,100627.75
2022-10-17T21:48:45.927Z,100621.84
2022-10-17T21:53:47.775Z,100620.34
2022-10-17T21:58:51.187Z,100629.78
2022-10-17T22:03:55.279Z,100634.00
2022-10-17T22:08:57.180Z,100624.19
2022-10-17T22:14:07.897Z,100633.31
2022-10-17T22:19:11.818Z,100639.88
2022-10-17T22:24:15.880Z,100637.03
2022-10-17T22:29:18.046Z,100646.66
2022-10-17T22:34:19.852Z,100644.13
2022-10-17T22:39:21.554Z,100649.00
2022-10-17T22:44:23.249Z,100650.16
2022-10-17T22:49:24.905Z,100646.09
2022-10-17T22:54:26.579Z,100651.75
2022-10-17T22:59:28.236Z,100659.03
2022-10-17T23:04:29.902Z,100643.56
2022-10-17T23:09:31.559Z,100652.28
2022-10-17T23:14:33.525Z,100649.59
2022-10-17T23:19:35.259Z,100650.84
2022-10-17T23:24:36.903Z,100642.47
2022-10-17T23:29:38.559Z,100645.88
2022-10-17T23:34:40.355Z,100647.34
2022-10-17T23:39:42.016Z,100642.38
2022-10-17T23:44:43.662Z,100636.34
2022-10-17T23:49:45.515Z,100631.34
2022-10-17T23:54:47.184Z,100634.66
2022-10-17T23:59:48.943Z,100635.72
